createdAt,value
2023-05-05T00:00:00.138Z, 12.2
2023-05-05T00:02:00.176Z, 12.2
2023-05-05T00:04:00.279Z, 12.4
2023-05-05T00:06:00.128Z, 12.5
2023-05-05T00:08:00.116Z, 12.3
2023-05-05T00:10:00.149Z, 12.1
2023-05-05T00:12:00.138Z, 12.2
2023-05-05T00:14:00.140Z, 12.3
2023-05-05T00:16:00.110Z, 12.4
2023-05-05T00:18:00.228Z, 12.5
2023-05-05T00:20:00.150Z, 12.6
2023-05-05T00:22:00.067Z, 12.6
2023-05-05T00:24:00.044Z, 12.7
2023-05-05T00:26:00.049Z, 12.8
2023-05-05T00:28:00.046Z, 12.7
2023-05-05T00:30:00.072Z, 12.6
2023-05-05T00:32:00.045Z, 12.6
2023-05-05T00:34:00.058Z, 12.5
2023-05-05T00:36:00.081Z, 12.6
2023-05-05T00:38:00.068Z, 12.6
2023-05-05T00:40:00.044Z, 12.8
2023-05-05T00:42:00.072Z, 12.8
2023-05-05T00:44:00.044Z, 12.9
2023-05-05T00:46:00.081Z, 13
2023-05-05T00:48:00.121Z, 12.9
2023-05-05T00:50:00.049Z, 12.8
2023-05-05T00:52:00.097Z, 12.6
2023-05-05T00:54:00.138Z, 12.5
2023-05-05T00:56:00.127Z, 12.4
2023-05-05T00:58:00.144Z, 12.4
2023-05-05T01:00:00.210Z, 12.4
2023-05-05T01:02:00.230Z, 12.3
2023-05-05T01:04:00.274Z, 12.3
2023-05-05T01:06:00.151Z, 12.4
2023-05-05T01:08:00.158Z, 12.5
2023-05-05T01:10:15.068Z, 12.6
2023-05-05T01:12:00.119Z, 12.6
2023-05-05T01:14:00.133Z, 12.6
2023-05-05T01:16:00.124Z, 12.4
2023-05-05T01:18:00.157Z, 12.7
2023-05-05T01:20:00.132Z, 12.9
2023-05-05T01:22:00.074Z, 12.1
2023-05-05T01:24:00.097Z, 11.5
2023-05-05T01:26:00.091Z, 11.1
2023-05-05T01:28:00.071Z, 11
2023-05-05T01:30:00.073Z, 11.1
2023-05-05T01:32:00.149Z, 11.3
2023-05-05T01:34:00.051Z, 11.5
2023-05-05T01:36:00.059Z, 11.4
2023-05-05T01:38:00.044Z, 11.2
2023-05-05T01:40:00.054Z, 10.9
2023-05-05T01:42:00.043Z, 10.6
2023-05-05T01:44:00.051Z, 10.6
2023-05-05T01:46:00.087Z, 10.7
2023-05-05T01:48:00.120Z, 10.9
2023-05-05T01:50:00.047Z, 11
2023-05-05T01:52:00.131Z, 10.7
2023-05-05T01:54:00.124Z, 10.6
2023-05-05T01:56:00.136Z, 10.5
2023-05-05T01:58:00.116Z, 10.4
2023-05-05T02:00:00.125Z, 10.5
2023-05-05T02:02:00.263Z, 10.7
2023-05-05T02:04:00.106Z, 10.8
2023-05-05T02:06:00.119Z, 10.9
2023-05-05T02:08:00.177Z, 11
2023-05-05T02:10:00.196Z, 11.2
2023-05-05T02:12:00.120Z, 11.2
2023-05-05T02:14:00.214Z, 11.2
2023-05-05T02:16:00.171Z, 11.2
2023-05-05T02:18:00.185Z, 11.2
2023-05-05T02:20:00.150Z, 11
2023-05-05T02:22:00.077Z, 10.5
2023-05-05T02:24:00.083Z, 10.4
2023-05-05T02:26:00.052Z, 10.6
2023-05-05T02:28:00.043Z, 10.7
2023-05-05T02:30:00.070Z, 10.8
2023-05-05T02:32:00.049Z, 10.9
2023-05-05T02:34:00.053Z, 11
2023-05-05T02:36:00.103Z, 11
2023-05-05T02:38:00.085Z, 11
2023-05-05T02:40:00.078Z, 11.1
2023-05-05T02:42:00.073Z, 11.1
2023-05-05T02:44:00.074Z, 11.2
2023-05-05T02:46:00.094Z, 11.2
2023-05-05T02:48:00.073Z, 11.3
2023-05-05T02:50:00.045Z, 11.4
2023-05-05T02:52:00.106Z, 11.6
2023-05-05T02:54:00.120Z, 11.6
2023-05-05T02:56:00.137Z, 11.6
2023-05-05T02:58:00.133Z, 11.6
2023-05-05T03:00:00.125Z, 11.5
2023-05-05T03:02:00.230Z, 11.4
2023-05-05T03:04:00.140Z, 11.5
2023-05-05T03:06:00.157Z, 11.6
2023-05-05T03:08:00.131Z, 11.7
2023-05-05T03:10:00.171Z, 11.8
2023-05-05T03:12:00.109Z, 12
2023-05-05T03:14:00.118Z, 11.9
2023-05-05T03:16:00.165Z, 11.7
2023-05-05T03:18:00.144Z, 11.5
2023-05-05T03:20:04.804Z, 11.4
2023-05-05T03:22:00.076Z, 11.2
2023-05-05T03:24:00.079Z, 10.9
2023-05-05T03:26:00.067Z, 10.5
2023-05-05T03:28:00.074Z, 10.1
2023-05-05T03:30:00.072Z, 10
2023-05-05T03:32:00.124Z, 10
2023-05-05T03:34:00.054Z, 10.2
2023-05-05T03:36:00.064Z, 10.4
2023-05-05T03:38:00.046Z, 10.7
2023-05-05T03:40:00.065Z, 10.9
2023-05-05T03:42:00.076Z, 11.1
2023-05-05T03:44:00.056Z, 11.3
2023-05-05T03:46:00.077Z, 11.3
2023-05-05T03:48:00.153Z, 11.3
2023-05-05T03:50:00.045Z, 11.4
2023-05-05T03:52:00.107Z, 11.7
2023-05-05T03:54:00.150Z, 11.7
2023-05-05T03:56:00.159Z, 11.7
2023-05-05T03:58:00.134Z, 11.8
2023-05-05T04:00:00.155Z, 11.9
2023-05-05T04:02:00.135Z, 12.1
2023-05-05T04:04:00.168Z, 12.1
2023-05-05T04:06:00.146Z, 12.2
2023-05-05T04:08:00.145Z, 12.2
2023-05-05T04:10:00.143Z, 12.2
2023-05-05T04:12:00.103Z, 12
2023-05-05T04:14:00.102Z, 11.8
2023-05-05T04:16:00.194Z, 11.8
2023-05-05T04:18:00.198Z, 11.8
2023-05-05T04:20:00.153Z, 11.8
2023-05-05T04:22:00.113Z, 11.8
2023-05-05T04:24:00.071Z, 11.7
2023-05-05T04:26:00.136Z, 11.6
2023-05-05T04:28:00.065Z, 11.7
2023-05-05T04:30:00.101Z, 11.7
2023-05-05T04:32:00.080Z, 11.8
2023-05-05T04:34:00.089Z, 11.8
2023-05-05T04:36:00.089Z, 11.9
2023-05-05T04:38:00.059Z, 11.9
2023-05-05T04:40:00.066Z, 11.9
2023-05-05T04:42:00.088Z, 11.8
2023-05-05T04:44:00.084Z, 11.6
2023-05-05T04:46:00.075Z, 11.5
2023-05-05T04:48:00.120Z, 11.4
2023-05-05T04:50:00.095Z, 11.4
2023-05-05T04:52:00.091Z, 11.3
2023-05-05T04:54:00.145Z, 11.4
2023-05-05T04:56:00.118Z, 11.4
2023-05-05T04:58:00.130Z, 11.3
2023-05-05T05:00:00.163Z, 11.2
2023-05-05T05:02:00.178Z, 11.3
2023-05-05T05:04:00.291Z, 11.6
2023-05-05T05:06:00.129Z, 12
2023-05-05T05:08:00.142Z, 12.5
2023-05-05T05:10:00.166Z, 12.9
2023-05-05T05:12:00.121Z, 13.2
2023-05-05T05:14:00.120Z, 13.1
2023-05-05T05:16:00.160Z, 12.7
2023-05-05T05:18:00.209Z, 12.8
2023-05-05T05:20:00.226Z, 13.2
2023-05-05T05:22:00.065Z, 13.8
2023-05-05T05:24:00.066Z, 14.4
2023-05-05T05:26:00.040Z, 14.9
2023-05-05T05:28:09.616Z, 15.3
2023-05-05T05:30:00.048Z, 15
2023-05-05T05:32:00.115Z, 14.1
2023-05-05T05:34:00.042Z, 13.3
2023-05-05T05:36:00.037Z, 12.9
2023-05-05T05:38:00.038Z, 13
2023-05-05T05:40:00.052Z, 13
2023-05-05T05:42:00.049Z, 13.4
2023-05-05T05:44:00.082Z, 13.7
2023-05-05T05:46:00.092Z, 13.9
2023-05-05T05:48:00.122Z, 14.1
2023-05-05T05:50:00.063Z, 14.5
2023-05-05T05:52:00.092Z, 15
2023-05-05T05:54:00.139Z, 15.4
2023-05-05T05:56:00.115Z, 15.6
2023-05-05T05:58:00.145Z, 16
2023-05-05T06:00:01.971Z, 16.7
2023-05-05T06:02:00.143Z, 17.1
2023-05-05T06:04:00.239Z, 17.4
2023-05-05T06:06:00.134Z, 17.9
2023-05-05T06:08:00.109Z, 17.9
2023-05-05T06:10:02.984Z, 18
2023-05-05T06:12:00.111Z, 18.2
2023-05-05T06:14:00.152Z, 18.4
2023-05-05T06:16:00.176Z, 18.8
2023-05-05T06:18:00.206Z, 19.4
2023-05-05T06:20:00.147Z, 19.8
2023-05-05T06:22:00.064Z, 20.3
2023-05-05T06:24:00.076Z, 20.5
2023-05-05T06:26:00.093Z, 20.9
2023-05-05T06:28:00.072Z, 20.9
2023-05-05T06:30:00.050Z, 21.1
2023-05-05T06:32:00.008Z, 21.1
2023-05-05T06:33:59.986Z, 20.5
2023-05-05T06:35:59.991Z, 20.7
2023-05-05T06:38:00.005Z, 20.4
2023-05-05T06:40:00.058Z, 20.4
2023-05-05T06:42:00.057Z, 20.8
2023-05-05T06:44:00.044Z, 20.7
2023-05-05T06:46:00.053Z, 20.5
2023-05-05T06:48:00.198Z, 19.8
2023-05-05T06:50:00.055Z, 19.4
2023-05-05T06:52:00.114Z, 19
2023-05-05T06:54:00.150Z, 18.5
2023-05-05T06:56:00.100Z, 18.3
2023-05-05T06:58:00.123Z, 18
2023-05-05T07:00:00.142Z, 18.1
2023-05-05T07:02:00.127Z, 18.4
2023-05-05T07:04:00.162Z, 18.9
2023-05-05T07:06:00.104Z, 19.4
2023-05-05T07:08:00.100Z, 19.8
2023-05-05T07:10:00.139Z, 19.3
2023-05-05T07:12:00.194Z, 18.8
2023-05-05T07:14:00.441Z, 18.9
2023-05-05T07:16:00.133Z, 19.1
2023-05-05T07:18:00.190Z, 18.8
2023-05-05T07:20:00.145Z, 18.8
2023-05-05T07:22:00.098Z, 19
2023-05-05T07:24:00.067Z, 19
2023-05-05T07:26:00.067Z, 18.9
2023-05-05T07:28:00.040Z, 18.7
2023-05-05T07:30:00.076Z, 18.7
2023-05-05T07:32:00.226Z, 18.9
2023-05-05T07:34:00.051Z, 18.7
2023-05-05T07:36:00.060Z, 18.7
2023-05-05T07:38:00.052Z, 18.9
2023-05-05T07:40:00.053Z, 19.3
2023-05-05T07:42:00.057Z, 19.4
2023-05-05T07:44:00.045Z, 19.5
2023-05-05T07:46:00.095Z, 19.3
2023-05-05T07:48:00.072Z, 19.5
2023-05-05T07:50:00.055Z, 20.4
2023-05-05T07:52:00.107Z, 21
2023-05-05T07:54:00.113Z, 20.6
2023-05-05T07:56:00.153Z, 20.4
2023-05-05T07:58:00.119Z, 20.3
2023-05-05T08:00:00.152Z, 20.2
2023-05-05T08:02:00.110Z, 20
2023-05-05T08:04:00.166Z, 20.5
2023-05-05T08:06:00.115Z, 20.2
2023-05-05T08:08:00.112Z, 19.9
2023-05-05T08:10:00.141Z, 19.9
2023-05-05T08:12:00.145Z, 19.8
2023-05-05T08:14:00.120Z, 20.2
2023-05-05T08:16:00.164Z, 20.6
2023-05-05T08:18:00.193Z, 21.3
2023-05-05T08:20:00.172Z, 22.1
2023-05-05T08:22:01.232Z, 21.9
2023-05-05T08:24:00.089Z, 21.4
2023-05-05T08:26:00.057Z, 21.2
2023-05-05T08:28:00.056Z, 21.2
2023-05-05T08:30:00.065Z, 21.1
2023-05-05T08:32:00.280Z, 21.5
2023-05-05T08:34:00.064Z, 21.2
2023-05-05T08:36:00.095Z, 21.7
2023-05-05T08:38:00.046Z, 21.6
2023-05-05T08:40:00.253Z, 21.9
2023-05-05T08:42:00.060Z, 22.7
2023-05-05T08:44:00.055Z, 23
2023-05-05T08:46:00.052Z, 22.9
2023-05-05T08:48:00.105Z, 22.5
2023-05-05T08:50:00.030Z, 21.9
2023-05-05T08:52:00.110Z, 21.9
2023-05-05T08:54:00.174Z, 21.9
2023-05-05T08:56:00.151Z, 21.5
2023-05-05T08:58:00.176Z, 21.7
2023-05-05T09:00:00.193Z, 21.5
2023-05-05T09:05:30.122Z, 21.5
2023-05-05T09:05:30.181Z, 21.5
2023-05-05T09:06:00.136Z, 21.3
2023-05-05T09:08:00.073Z, 22.3
2023-05-05T09:10:00.076Z, 22.2
2023-05-05T09:12:00.093Z, 21.5
2023-05-05T09:14:00.064Z, 20.8
2023-05-05T09:16:00.103Z, 20.6
2023-05-05T09:18:00.121Z, 20.4
2023-05-05T09:20:00.101Z, 20.3
2023-05-05T09:22:00.087Z, 20.2
2023-05-05T09:24:07.382Z, 20.3
2023-05-05T09:26:00.056Z, 20.2
2023-05-05T09:28:00.047Z, 20.5
2023-05-05T09:30:00.055Z, 20.4
2023-05-05T09:32:00.043Z, 20.8
2023-05-05T09:34:00.037Z, 20.9
2023-05-05T09:36:00.053Z, 21
2023-05-05T09:38:00.032Z, 20.9
2023-05-05T09:40:00.045Z, 20.9
2023-05-05T09:42:00.046Z, 21
2023-05-05T09:44:00.034Z, 21
2023-05-05T09:46:00.077Z, 20.9
2023-05-05T09:48:00.732Z, 20.7
2023-05-05T09:50:00.047Z, 21
2023-05-05T09:52:00.134Z, 21.2
2023-05-05T09:54:00.152Z, 21.6
2023-05-05T09:56:00.108Z, 21.5
2023-05-05T09:58:00.206Z, 21.7
2023-05-05T10:00:00.131Z, 21.8
2023-05-05T10:02:00.155Z, 22.2
2023-05-05T10:04:00.090Z, 21.9
2023-05-05T10:06:00.102Z, 22
2023-05-05T10:08:00.113Z, 21.8
2023-05-05T10:10:00.205Z, 21.9
2023-05-05T10:12:00.159Z, 21.6
2023-05-05T10:14:00.159Z, 21.5
2023-05-05T10:16:00.146Z, 21.8
2023-05-05T10:18:07.500Z, 22
2023-05-05T10:20:00.149Z, 22
2023-05-05T10:22:00.089Z, 22
2023-05-05T10:24:00.057Z, 22
2023-05-05T10:26:00.048Z, 21.8
2023-05-05T10:28:00.035Z, 22.1
2023-05-05T10:30:00.069Z, 22
2023-05-05T10:32:00.079Z, 21.7
2023-05-05T10:34:00.329Z, 21.6
2023-05-05T10:36:00.044Z, 21.6
2023-05-05T10:38:00.055Z, 21.6
2023-05-05T10:40:00.071Z, 22
2023-05-05T10:42:00.075Z, 21.7
2023-05-05T10:44:02.178Z, 21.6
2023-05-05T10:46:00.101Z, 21.8
2023-05-05T10:48:00.141Z, 22
2023-05-05T10:50:00.064Z, 22.5
2023-05-05T10:52:00.082Z, 22.3
2023-05-05T10:54:00.169Z, 22
2023-05-05T10:56:00.105Z, 21.8
2023-05-05T10:58:00.125Z, 21.2
2023-05-05T11:00:00.176Z, 20.7
2023-05-05T11:02:00.086Z, 20.7
2023-05-05T11:04:00.179Z, 20.9
2023-05-05T11:06:00.130Z, 21.1
2023-05-05T11:08:00.095Z, 21.5
2023-05-05T11:10:00.179Z, 21.6
2023-05-05T11:12:00.084Z, 21.1
2023-05-05T11:14:00.144Z, 21.2
2023-05-05T11:16:00.122Z, 21.5
2023-05-05T11:18:00.163Z, 21.7
2023-05-05T11:20:00.157Z, 21.9
2023-05-05T11:22:00.077Z, 22.2
2023-05-05T11:24:00.063Z, 21.6
2023-05-05T11:26:00.061Z, 21.6
2023-05-05T11:28:00.088Z, 21.7
2023-05-05T11:30:00.118Z, 21.7
2023-05-05T11:32:00.045Z, 21.6
2023-05-05T11:34:00.049Z, 21.6
2023-05-05T11:36:00.046Z, 21.3
2023-05-05T11:38:00.049Z, 21.6
2023-05-05T11:40:00.066Z, 22.3
2023-05-05T11:42:00.064Z, 22.4
2023-05-05T11:44:00.045Z, 22.3
2023-05-05T11:46:00.102Z, 22.5
2023-05-05T11:48:00.209Z, 22.6
2023-05-05T11:50:00.067Z, 22.8
2023-05-05T11:52:00.135Z, 22.7
2023-05-05T11:54:00.109Z, 22.4
2023-05-05T11:56:00.123Z, 22.2
2023-05-05T11:58:00.130Z, 22.2
2023-05-05T12:00:00.133Z, 22
2023-05-05T12:02:00.124Z, 21.9
2023-05-05T12:04:00.287Z, 21.9
2023-05-05T12:06:00.143Z, 21.9
2023-05-05T12:08:00.149Z, 22.3
2023-05-05T12:10:00.168Z, 22.5
2023-05-05T12:12:00.130Z, 22.4
2023-05-05T12:14:00.113Z, 22.9
2023-05-05T12:16:00.171Z, 22.9
2023-05-05T12:18:02.336Z, 22.7
2023-05-05T12:20:00.129Z, 22.5
2023-05-05T12:22:00.076Z, 22
2023-05-05T12:24:00.085Z, 22
2023-05-05T12:26:00.070Z, 22
2023-05-05T12:28:00.061Z, 22.3
2023-05-05T12:30:00.057Z, 22.7
2023-05-05T12:32:00.166Z, 22.8
2023-05-05T12:34:00.088Z, 22.6
2023-05-05T12:36:00.059Z, 22.5
2023-05-05T12:38:00.046Z, 22.6
2023-05-05T12:40:00.073Z, 22.6
2023-05-05T12:42:00.061Z, 22.6
2023-05-05T12:44:00.041Z, 22.7
2023-05-05T12:46:00.115Z, 22.9
2023-05-05T12:48:00.155Z, 22.6
2023-05-05T12:50:00.047Z, 22.7
2023-05-05T12:52:00.120Z, 22.8
2023-05-05T12:54:00.106Z, 22.4
2023-05-05T12:56:00.135Z, 22.5
2023-05-05T12:58:00.126Z, 22.7
2023-05-05T13:00:00.162Z, 22.8
2023-05-05T13:02:00.229Z, 22.2
2023-05-05T13:04:00.119Z, 22.2
2023-05-05T13:06:00.154Z, 22.2
2023-05-05T13:08:00.140Z, 22.3
2023-05-05T13:10:00.185Z, 21.9
2023-05-05T13:12:00.127Z, 21.7
2023-05-05T13:14:00.118Z, 21.6
2023-05-05T13:16:00.168Z, 21.5
2023-05-05T13:18:00.268Z, 21.5
2023-05-05T13:20:00.132Z, 21.6
2023-05-05T13:22:00.076Z, 21.4
2023-05-05T13:24:16.244Z, 21.3
2023-05-05T13:26:00.062Z, 21.3
2023-05-05T13:28:00.071Z, 21.3
2023-05-05T13:30:00.076Z, 21.7
2023-05-05T13:32:00.067Z, 21.7
2023-05-05T13:34:00.069Z, 21.9
2023-05-05T13:36:00.048Z, 22
2023-05-05T13:38:00.059Z, 22.2
2023-05-05T13:40:00.058Z, 22
2023-05-05T13:42:00.058Z, 21.9
2023-05-05T13:44:00.064Z, 21.7
2023-05-05T13:46:12.154Z, 21.9
2023-05-05T13:48:00.128Z, 22.1
2023-05-05T13:50:00.050Z, 22.5
2023-05-05T13:52:00.161Z, 22.7
2023-05-05T13:54:00.114Z, 22.4
2023-05-05T13:56:00.125Z, 22.1
2023-05-05T13:58:00.112Z, 21.9
2023-05-05T14:00:00.150Z, 21.8
2023-05-05T14:02:00.098Z, 21.8
2023-05-05T14:04:02.072Z, 21.7
2023-05-05T14:06:00.136Z, 21.7
2023-05-05T14:08:00.119Z, 21.6
2023-05-05T14:10:00.165Z, 21.5
2023-05-05T14:12:00.133Z, 21.2
2023-05-05T14:14:00.165Z, 21
2023-05-05T14:16:00.251Z, 21
2023-05-05T14:18:00.174Z, 21
2023-05-05T14:20:00.171Z, 21.1
2023-05-05T14:22:00.073Z, 21
2023-05-05T14:24:00.060Z, 20.8
2023-05-05T14:26:00.048Z, 20.9
2023-05-05T14:28:00.025Z, 20.6
2023-05-05T14:30:00.060Z, 20.6
2023-05-05T14:32:00.105Z, 20.5
2023-05-05T14:34:00.057Z, 20.5
2023-05-05T14:36:00.095Z, 20.4
2023-05-05T14:38:00.047Z, 20.3
2023-05-05T14:40:00.052Z, 20.2
2023-05-05T14:42:00.056Z, 20.1
2023-05-05T14:44:00.042Z, 19.9
2023-05-05T14:46:00.120Z, 19.5
2023-05-05T14:48:00.110Z, 19.3
2023-05-05T14:50:00.046Z, 19.3
2023-05-05T14:52:00.142Z, 19.2
2023-05-05T14:54:00.127Z, 19.2
2023-05-05T14:56:00.089Z, 19.3
2023-05-05T14:58:00.128Z, 19.4
2023-05-05T15:00:00.179Z, 19.3
2023-05-05T15:02:00.264Z, 19.3
2023-05-05T15:04:00.255Z, 19.1
2023-05-05T15:06:00.119Z, 19
2023-05-05T15:08:00.123Z, 19
2023-05-05T15:10:00.152Z, 19.1
2023-05-05T15:12:00.127Z, 19.1
2023-05-05T15:14:00.119Z, 19
2023-05-05T15:16:00.185Z, 19
2023-05-05T15:18:00.135Z, 19
2023-05-05T15:20:00.115Z, 19
2023-05-05T15:22:00.116Z, 18.9
2023-05-05T15:24:00.068Z, 19
2023-05-05T15:26:00.062Z, 18.9
2023-05-05T15:28:00.062Z, 19
2023-05-05T15:30:00.082Z, 19
2023-05-05T15:32:00.242Z, 19
2023-05-05T15:34:00.060Z, 18.9
2023-05-05T15:36:00.074Z, 18.9
2023-05-05T15:38:00.053Z, 18.8
2023-05-05T15:40:00.057Z, 18.8
2023-05-05T15:42:00.064Z, 18.7
2023-05-05T15:44:00.048Z, 18.8
2023-05-05T15:46:00.053Z, 19
2023-05-05T15:48:00.103Z, 19
2023-05-05T15:50:00.049Z, 19.1
2023-05-05T15:52:00.116Z, 19.2
2023-05-05T15:54:00.144Z, 19.1
2023-05-05T15:56:00.111Z, 19.1
2023-05-05T15:58:00.135Z, 19.1
2023-05-05T16:00:00.157Z, 19.1
2023-05-05T16:02:00.142Z, 19.3
2023-05-05T16:04:00.153Z, 19.4
2023-05-05T16:06:00.123Z, 19.4
2023-05-05T16:08:00.165Z, 19.2
2023-05-05T16:10:00.117Z, 19.1
2023-05-05T16:12:00.092Z, 19.2
2023-05-05T16:14:00.123Z, 19.1
2023-05-05T16:16:00.122Z, 18.8
2023-05-05T16:18:00.150Z, 18.6
2023-05-05T16:20:00.098Z, 18.6
2023-05-05T16:22:00.078Z, 18.5
2023-05-05T16:24:00.064Z, 18.6
2023-05-05T16:26:00.056Z, 18.4
2023-05-05T16:28:00.097Z, 18.4
2023-05-05T16:30:00.074Z, 18.3
2023-05-05T16:32:00.094Z, 18.4
2023-05-05T16:34:00.053Z, 18.5
2023-05-05T16:36:00.039Z, 18.5
2023-05-05T16:38:00.048Z, 18.5
2023-05-05T16:40:00.106Z, 18.4
2023-05-05T16:42:00.062Z, 18.3
2023-05-05T16:44:00.121Z, 18.3
2023-05-05T16:46:00.110Z, 18.3
2023-05-05T16:48:00.100Z, 18.3
2023-05-05T16:50:00.187Z, 18.3
2023-05-05T16:52:00.140Z, 18.3
2023-05-05T16:54:00.132Z, 18.1
2023-05-05T16:56:00.111Z, 18
2023-05-05T16:58:00.134Z, 18.1
2023-05-05T17:00:00.207Z, 18.2
2023-05-05T17:02:00.196Z, 18.3
2023-05-05T17:04:00.100Z, 18.1
2023-05-05T17:06:00.363Z, 18
2023-05-05T17:08:00.106Z, 18
2023-05-05T17:10:00.172Z, 18
2023-05-05T17:12:00.125Z, 18
2023-05-05T17:14:00.113Z, 18
2023-05-05T17:16:00.209Z, 17.9
2023-05-05T17:18:00.219Z, 17.8
2023-05-05T17:20:00.150Z, 17.8
2023-05-05T17:22:00.059Z, 17.8
2023-05-05T17:24:00.056Z, 17.8
2023-05-05T17:26:00.037Z, 17.6
2023-05-05T17:28:00.037Z, 17.6
2023-05-05T17:30:00.073Z, 17.5
2023-05-05T17:32:00.106Z, 17.5
2023-05-05T17:34:00.069Z, 17.6
2023-05-05T17:36:00.063Z, 17.6
2023-05-05T17:38:00.060Z, 17.5
2023-05-05T17:40:00.035Z, 17.4
2023-05-05T17:42:00.067Z, 17.3
2023-05-05T17:44:00.042Z, 17.4
2023-05-05T17:46:00.114Z, 17.4
2023-05-05T17:48:00.108Z, 17.3
2023-05-05T17:50:00.051Z, 17.3
2023-05-05T17:52:00.130Z, 17.5
2023-05-05T17:54:00.125Z, 17.5
2023-05-05T17:56:00.121Z, 17.6
2023-05-05T17:58:00.125Z, 17.6
2023-05-05T18:00:00.164Z, 17.5
2023-05-05T18:02:00.162Z, 17.5
2023-05-05T18:04:00.111Z, 17.6
2023-05-05T18:06:00.163Z, 17.6
2023-05-05T18:08:00.157Z, 17.5
2023-05-05T18:10:00.162Z, 17.1
2023-05-05T18:12:00.145Z, 17.2
2023-05-05T18:14:00.133Z, 17.4
2023-05-05T18:16:00.149Z, 17.6
2023-05-05T18:18:00.135Z, 17.6
2023-05-05T18:20:00.194Z, 17.7
2023-05-05T18:22:00.090Z, 17.7
2023-05-05T18:24:11.628Z, 17.6
2023-05-05T18:26:00.073Z, 17.5
2023-05-05T18:28:00.045Z, 17.4
2023-05-05T18:30:00.057Z, 17.3
2023-05-05T18:32:00.046Z, 17.4
2023-05-05T18:34:00.056Z, 17.4
2023-05-05T18:36:00.091Z, 17.3
2023-05-05T18:38:00.055Z, 17.4
2023-05-05T18:40:00.057Z, 17.4
2023-05-05T18:42:00.052Z, 17.5
2023-05-05T18:44:00.064Z, 17.6
2023-05-05T18:46:00.047Z, 17.7
2023-05-05T18:48:00.134Z, 17.7
2023-05-05T18:50:00.050Z, 17.7
2023-05-05T18:52:00.133Z, 17.6
2023-05-05T18:54:00.139Z, 17.5
2023-05-05T18:56:00.156Z, 17.6
2023-05-05T18:58:00.153Z, 17.7
2023-05-05T19:00:00.150Z, 17.7
2023-05-05T19:02:00.108Z, 17.6
2023-05-05T19:04:00.187Z, 17.4
2023-05-05T19:06:00.135Z, 17.3
2023-05-05T19:08:00.153Z, 17.1
2023-05-05T19:10:00.162Z, 17
2023-05-05T19:12:00.143Z, 16.9
2023-05-05T19:14:00.167Z, 16.7
2023-05-05T19:16:00.150Z, 16.5
2023-05-05T19:18:00.149Z, 16.5
2023-05-05T19:20:00.120Z, 16.4
2023-05-05T19:22:02.195Z, 16.3
2023-05-05T19:24:00.108Z, 16.2
2023-05-05T19:26:00.059Z, 16.1
2023-05-05T19:28:00.070Z, 16
2023-05-05T19:30:00.089Z, 16.3
2023-05-05T19:32:00.147Z, 16.4
2023-05-05T19:34:00.065Z, 16.5
2023-05-05T19:36:00.080Z, 16.6
2023-05-05T19:38:00.065Z, 16.7
2023-05-05T19:40:00.063Z, 16.8
2023-05-05T19:42:00.059Z, 16.8
2023-05-05T19:44:00.057Z, 16.6
2023-05-05T19:46:00.096Z, 16.4
2023-05-05T19:48:00.074Z, 16.5
2023-05-05T19:50:00.047Z, 16.6
2023-05-05T19:52:00.091Z, 16.4
2023-05-05T19:54:00.106Z, 16.2
2023-05-05T19:56:00.117Z, 16.2
2023-05-05T19:58:00.127Z, 16.4
2023-05-05T20:00:00.139Z, 16.6
2023-05-05T20:02:00.194Z, 16.8
2023-05-05T20:04:00.197Z, 16.8
2023-05-05T20:06:00.147Z, 16.7
2023-05-05T20:08:00.130Z, 16.6
2023-05-05T20:10:00.183Z, 16.7
2023-05-05T20:12:00.144Z, 16.8
2023-05-05T20:14:00.104Z, 16.9
2023-05-05T20:16:00.160Z, 16.9
2023-05-05T20:18:00.214Z, 17
2023-05-05T20:20:00.141Z, 17.1
2023-05-05T20:22:00.087Z, 17.1
2023-05-05T20:24:00.210Z, 17.1
2023-05-05T20:26:00.044Z, 17
2023-05-05T20:28:00.049Z, 17.1
2023-05-05T20:30:00.056Z, 17.1
2023-05-05T20:32:00.072Z, 17.1
2023-05-05T20:34:00.091Z, 17
2023-05-05T20:36:00.077Z, 17.1
2023-05-05T20:38:00.073Z, 17
2023-05-05T20:40:00.065Z, 17
2023-05-05T20:42:00.048Z, 16.4
2023-05-05T20:44:00.039Z, 16
2023-05-05T20:46:00.045Z, 15.8
2023-05-05T20:48:00.075Z, 15.7
2023-05-05T20:50:00.074Z, 15.8
2023-05-05T20:52:00.106Z, 15.8
2023-05-05T20:54:00.139Z, 15.6
2023-05-05T20:56:00.144Z, 15.6
2023-05-05T20:58:00.138Z, 15.6
2023-05-05T21:00:00.125Z, 15.3
2023-05-05T21:02:00.156Z, 15.1
2023-05-05T21:04:00.109Z, 14.8
2023-05-05T21:06:00.150Z, 14.6
2023-05-05T21:08:01.068Z, 14.5
2023-05-05T21:10:00.158Z, 14.7
2023-05-05T21:12:00.149Z, 14.9
2023-05-05T21:14:00.107Z, 15.1
2023-05-05T21:16:00.100Z, 15.2
2023-05-05T21:18:00.136Z, 15.4
2023-05-05T21:20:00.145Z, 15.5
2023-05-05T21:22:00.090Z, 15.6
2023-05-05T21:24:00.092Z, 15.6
2023-05-05T21:26:00.077Z, 15.7
2023-05-05T21:28:00.061Z, 15.7
2023-05-05T21:30:00.085Z, 15.6
2023-05-05T21:32:00.096Z, 15.6
2023-05-05T21:34:00.055Z, 15.6
2023-05-05T21:36:00.065Z, 15.5
2023-05-05T21:38:00.055Z, 15.6
2023-05-05T21:40:00.055Z, 15.4
2023-05-05T21:42:00.071Z, 15.4
2023-05-05T21:44:00.065Z, 15.3
2023-05-05T21:46:00.162Z, 15.5
2023-05-05T21:48:00.183Z, 15.5
2023-05-05T21:50:00.064Z, 15.4
2023-05-05T21:52:00.116Z, 15.3
2023-05-05T21:54:00.114Z, 15.2
2023-05-05T21:56:00.148Z, 15.1
2023-05-05T21:58:00.098Z, 14.9
2023-05-05T22:00:00.160Z, 14.8
2023-05-05T22:02:00.181Z, 14.9
2023-05-05T22:04:00.183Z, 15.1
2023-05-05T22:06:00.132Z, 15.2
2023-05-05T22:08:00.152Z, 15.3
2023-05-05T22:10:00.206Z, 15.4
2023-05-05T22:12:00.148Z, 15.4
2023-05-05T22:14:00.130Z, 15.5
2023-05-05T22:16:00.180Z, 15.6
2023-05-05T22:18:00.211Z, 15.5
2023-05-05T22:20:00.167Z, 15.5
2023-05-05T22:22:00.072Z, 15.5
2023-05-05T22:24:00.151Z, 15.4
2023-05-05T22:26:00.030Z, 15.2
2023-05-05T22:28:00.060Z, 15
2023-05-05T22:30:00.049Z, 14.6
2023-05-05T22:32:00.044Z, 14.2
2023-05-05T22:34:00.052Z, 13.9
2023-05-05T22:36:00.076Z, 13.5
2023-05-05T22:38:00.055Z, 13.4
2023-05-05T22:40:00.040Z, 13.4
2023-05-05T22:42:00.059Z, 13.5
2023-05-05T22:44:00.059Z, 13.6
2023-05-05T22:46:00.101Z, 13.6
2023-05-05T22:48:00.213Z, 13.5
2023-05-05T22:50:00.046Z, 13.4
2023-05-05T22:52:00.101Z, 13.4
2023-05-05T22:54:00.131Z, 13.4
2023-05-05T22:56:00.175Z, 13.4
2023-05-05T22:58:00.140Z, 13.4
2023-05-05T23:00:00.167Z, 13.5
2023-05-05T23:02:00.139Z, 13.4
2023-05-05T23:04:00.163Z, 13.4
2023-05-05T23:06:00.173Z, 13.3
2023-05-05T23:08:00.112Z, 13.4
2023-05-05T23:10:00.146Z, 13.4
2023-05-05T23:12:00.112Z, 13.4
2023-05-05T23:14:00.114Z, 13.4
2023-05-05T23:16:00.125Z, 13.1
2023-05-05T23:18:00.191Z, 13.1
2023-05-05T23:20:00.169Z, 13.1
2023-05-05T23:22:00.086Z, 13.2
2023-05-05T23:24:00.146Z, 13.1
2023-05-05T23:26:00.059Z, 13
2023-05-05T23:28:00.078Z, 13
2023-05-05T23:30:00.115Z, 13.1
2023-05-05T23:32:00.073Z, 13.2
2023-05-05T23:34:00.062Z, 13.2
2023-05-05T23:36:00.083Z, 13.2
2023-05-05T23:38:00.043Z, 13
2023-05-05T23:40:00.065Z, 13.1
2023-05-05T23:42:00.066Z, 13
2023-05-05T23:44:00.064Z, 13
2023-05-05T23:46:00.106Z, 13.1
2023-05-05T23:48:00.098Z, 13.1
2023-05-05T23:50:00.064Z, 13.2
2023-05-05T23:52:00.128Z, 13
2023-05-05T23:54:00.134Z, 12.6
2023-05-05T23:56:00.097Z, 12.6
2023-05-05T23:58:00.144Z, 12.7
